Huvudsida
METAR-TAF:

METAR-TAF

Flygplatser :

Innsbrucks flygplats

Innsbruck, Österrike

latitud: 47-16N, longitud: 011-21E, höjd: 581 m

Aktuellt väderrapport

Denna rapport gjordes för 58 minuter sedan, klockan 05:50 UTC
Vind 3 kt från väst/sydväst, varierande mellan syd/sydväst och nordväst
Temperatur 0°C
Fuktighet 74%
Tryck 1030 hPa
Sikt 10 km eller mer
Inga moln under 1 500 m eller inga cumulonimbus

METAR: LOWI 220550Z 24003KT 200V320 CAVOK M00/M04 Q1030 NOSIG

Tid: 07:48 (06:48 UTC)

Väderprognos

Denna rapport gjordes för 1 timme och 33 minuter sedan, klockan 05:15 UTC
Prognos gäller från 22 kl. 06 UTC till 23 kl. 06 UTC
Vind 5 kt från väst
Sikt 10 km eller mer
Inga moln under 1 500 m eller inga cumulonimbus
Blir
från 22 kl. 10 UTC till 22 kl. 12 UTC
Vind 8 kt från ost
Blir
från 22 kl. 17 UTC till 22 kl. 19 UTC
Vind 5 kt från väst

TAF: LOWI 220515Z 2206/2306 27005KT CAVOK TX15/2215Z TN00/2206Z BECMG 2210/2212 08008KT BECMG 2217/2219 27005KT

Aktuella väderrapporter och prognoser från 4000 flygplatser (METAR- och TAF-rapporter).

De tillgängliga stationerna syns som gula och röda prickar på kartan.

För musen över prickarna för att se namnen på stationerna.

Klicka sedan för att få väderrapporter och prognoser.

För att ändra kartan: Klicka på de gröna knapparna med ett svart kors på för att zooma in; den gröna knappen med ett streck på för att zooma ut; eller på de gröna pilarna för angränsande kartor.


METAR-TAF: